sensor_id;sensor_type;location;lat;lon;timestamp;temperature;humidity
41344;DHT22;27089;50.022;7.604;2024-03-08T00:02:08;3.80;99.90
41344;DHT22;27089;50.022;7.604;2024-03-08T00:04:35;3.70;99.90
41344;DHT22;27089;50.022;7.604;2024-03-08T00:07:02;3.60;99.90
41344;DHT22;27089;50.022;7.604;2024-03-08T00:09:29;3.60;99.90
41344;DHT22;27089;50.022;7.604;2024-03-08T00:11:56;3.60;99.90
41344;DHT22;27089;50.022;7.604;2024-03-08T00:14:25;3.60;99.90
41344;DHT22;27089;50.022;7.604;2024-03-08T00:16:52;3.50;99.90
41344;DHT22;27089;50.022;7.604;2024-03-08T00:19:19;3.50;99.90
41344;DHT22;27089;50.022;7.604;2024-03-08T00:21:46;3.30;99.90
41344;DHT22;27089;50.022;7.604;2024-03-08T00:24:13;3.30;99.90
41344;DHT22;27089;50.022;7.604;2024-03-08T00:26:40;3.30;99.90
41344;DHT22;27089;50.022;7.604;2024-03-08T00:29:09;3.30;99.90
41344;DHT22;27089;50.022;7.604;2024-03-08T00:31:37;3.20;99.90
41344;DHT22;27089;50.022;7.604;2024-03-08T00:34:04;3.20;99.90
41344;DHT22;27089;50.022;7.604;2024-03-08T00:36:31;3.30;99.90
41344;DHT22;27089;50.022;7.604;2024-03-08T00:38:58;3.30;99.90
41344;DHT22;27089;50.022;7.604;2024-03-08T00:41:26;3.30;99.90
41344;DHT22;27089;50.022;7.604;2024-03-08T00:43:53;3.10;99.90
41344;DHT22;27089;50.022;7.604;2024-03-08T00:46:20;3.10;99.90
41344;DHT22;27089;50.022;7.604;2024-03-08T00:48:49;3.10;99.90
41344;DHT22;27089;50.022;7.604;2024-03-08T00:51:16;3.10;99.90
41344;DHT22;27089;50.022;7.604;2024-03-08T00:53:43;3.10;99.90
41344;DHT22;27089;50.022;7.604;2024-03-08T00:56:10;3.10;99.90
41344;DHT22;27089;50.022;7.604;2024-03-08T00:58:37;3.00;99.90
41344;DHT22;27089;50.022;7.604;2024-03-08T01:01:05;3.00;99.90
41344;DHT22;27089;50.022;7.604;2024-03-08T01:03:31;3.00;99.90
41344;DHT22;27089;50.022;7.604;2024-03-08T01:06:01;3.00;99.90
41344;DHT22;27089;50.022;7.604;2024-03-08T01:08:28;2.90;99.90
41344;DHT22;27089;50.022;7.604;2024-03-08T01:10:55;2.90;99.90
41344;DHT22;27089;50.022;7.604;2024-03-08T01:13:22;2.90;99.90
41344;DHT22;27089;50.022;7.604;2024-03-08T01:15:49;2.80;99.90
41344;DHT22;27089;50.022;7.604;2024-03-08T01:18:16;2.90;99.90
41344;DHT22;27089;50.022;7.604;2024-03-08T01:20:45;3.00;99.90
41344;DHT22;27089;50.022;7.604;2024-03-08T01:23:13;2.90;99.90
41344;DHT22;27089;50.022;7.604;2024-03-08T01:25:40;2.90;99.90
41344;DHT22;27089;50.022;7.604;2024-03-08T01:28:09;2.90;99.90
41344;DHT22;27089;50.022;7.604;2024-03-08T01:30:36;2.80;99.90
41344;DHT22;27089;50.022;7.604;2024-03-08T01:33:04;2.70;99.90
41344;DHT22;27089;50.022;7.604;2024-03-08T01:35:31;2.70;99.90
41344;DHT22;27089;50.022;7.604;2024-03-08T01:38:00;2.70;99.90
41344;DHT22;27089;50.022;7.604;2024-03-08T01:40:28;2.70;99.90
41344;DHT22;27089;50.022;7.604;2024-03-08T01:42:55;2.60;99.90
41344;DHT22;27089;50.022;7.604;2024-03-08T01:45:22;2.60;99.90
41344;DHT22;27089;50.022;7.604;2024-03-08T01:47:50;2.60;99.90
41344;DHT22;27089;50.022;7.604;2024-03-08T01:50:17;2.50;99.90
41344;DHT22;27089;50.022;7.604;2024-03-08T01:52:45;2.40;99.90
41344;DHT22;27089;50.022;7.604;2024-03-08T01:55:13;2.40;99.90
41344;DHT22;27089;50.022;7.604;2024-03-08T01:57:43;2.40;99.90
41344;DHT22;27089;50.022;7.604;2024-03-08T02:00:11;2.30;99.90
41344;DHT22;27089;50.022;7.604;2024-03-08T02:02:42;2.30;99.90
41344;DHT22;27089;50.022;7.604;2024-03-08T02:05:10;2.30;99.90
41344;DHT22;27089;50.022;7.604;2024-03-08T02:07:37;2.30;99.90
41344;DHT22;27089;50.022;7.604;2024-03-08T02:10:04;2.30;99.90
41344;DHT22;27089;50.022;7.604;2024-03-08T02:12:32;2.30;99.90
41344;DHT22;27089;50.022;7.604;2024-03-08T02:15:00;2.20;99.90
41344;DHT22;27089;50.022;7.604;2024-03-08T02:17:27;2.10;99.90
41344;DHT22;27089;50.022;7.604;2024-03-08T02:19:56;2.10;99.90
41344;DHT22;27089;50.022;7.604;2024-03-08T02:22:24;2.10;99.90
41344;DHT22;27089;50.022;7.604;2024-03-08T02:24:51;2.10;99.90
41344;DHT22;27089;50.022;7.604;2024-03-08T02:27:23;2.10;99.90
41344;DHT22;27089;50.022;7.604;2024-03-08T02:29:51;2.00;99.90
41344;DHT22;27089;50.022;7.604;2024-03-08T02:32:21;2.00;99.90
41344;DHT22;27089;50.022;7.604;2024-03-08T02:34:48;2.00;99.90
41344;DHT22;27089;50.022;7.604;2024-03-08T02:37:15;1.90;99.90
41344;DHT22;27089;50.022;7.604;2024-03-08T02:39:43;1.90;99.90
41344;DHT22;27089;50.022;7.604;2024-03-08T02:42:10;1.90;99.90
41344;DHT22;27089;50.022;7.604;2024-03-08T02:44:42;1.90;99.90
41344;DHT22;27089;50.022;7.604;2024-03-08T02:47:10;1.80;99.90
41344;DHT22;27089;50.022;7.604;2024-03-08T02:49:37;1.80;99.90
41344;DHT22;27089;50.022;7.604;2024-03-08T02:52:04;1.80;99.90
41344;DHT22;27089;50.022;7.604;2024-03-08T02:54:33;1.80;99.90
41344;DHT22;27089;50.022;7.604;2024-03-08T02:57:02;1.70;99.90
41344;DHT22;27089;50.022;7.604;2024-03-08T02:59:29;1.80;99.90
41344;DHT22;27089;50.022;7.604;2024-03-08T03:01:56;1.80;99.90
41344;DHT22;27089;50.022;7.604;2024-03-08T03:04:23;1.80;99.90
41344;DHT22;27089;50.022;7.604;2024-03-08T03:06:50;1.70;99.90
41344;DHT22;27089;50.022;7.604;2024-03-08T03:09:17;1.70;99.90
41344;DHT22;27089;50.022;7.604;2024-03-08T03:11:53;1.60;99.90
41344;DHT22;27089;50.022;7.604;2024-03-08T03:14:21;1.50;99.90
41344;DHT22;27089;50.022;7.604;2024-03-08T03:16:48;1.50;99.90
41344;DHT22;27089;50.022;7.604;2024-03-08T03:19:15;1.50;99.90
41344;DHT22;27089;50.022;7.604;2024-03-08T03:21:44;1.50;99.90
41344;DHT22;27089;50.022;7.604;2024-03-08T03:24:11;1.50;99.90
41344;DHT22;27089;50.022;7.604;2024-03-08T03:26:42;1.40;99.90
41344;DHT22;27089;50.022;7.604;2024-03-08T03:29:09;1.40;99.90
41344;DHT22;27089;50.022;7.604;2024-03-08T03:31:38;1.40;99.90
41344;DHT22;27089;50.022;7.604;2024-03-08T03:34:06;1.30;99.90
41344;DHT22;27089;50.022;7.604;2024-03-08T03:36:34;1.30;99.90
41344;DHT22;27089;50.022;7.604;2024-03-08T03:39:03;1.30;99.90
41344;DHT22;27089;50.022;7.604;2024-03-08T03:41:36;1.40;99.90
41344;DHT22;27089;50.022;7.604;2024-03-08T03:44:04;1.40;99.90
41344;DHT22;27089;50.022;7.604;2024-03-08T03:46:32;1.40;99.90
41344;DHT22;27089;50.022;7.604;2024-03-08T03:49:00;1.30;99.90
41344;DHT22;27089;50.022;7.604;2024-03-08T03:51:29;1.20;99.90
41344;DHT22;27089;50.022;7.604;2024-03-08T03:53:56;1.20;99.90
41344;DHT22;27089;50.022;7.604;2024-03-08T03:56:25;1.10;99.90
41344;DHT22;27089;50.022;7.604;2024-03-08T03:58:52;1.10;99.90
41344;DHT22;27089;50.022;7.604;2024-03-08T04:01:19;1.20;99.90
41344;DHT22;27089;50.022;7.604;2024-03-08T04:03:46;1.10;99.90
41344;DHT22;27089;50.022;7.604;2024-03-08T04:06:15;1.10;99.90
41344;DHT22;27089;50.022;7.604;2024-03-08T04:08:42;1.10;99.90
41344;DHT22;27089;50.022;7.604;2024-03-08T04:11:09;1.10;99.90
41344;DHT22;27089;50.022;7.604;2024-03-08T04:13:36;1.10;99.90
41344;DHT22;27089;50.022;7.604;2024-03-08T04:16:04;1.10;99.90
41344;DHT22;27089;50.022;7.604;2024-03-08T04:18:33;1.10;99.90
41344;DHT22;27089;50.022;7.604;2024-03-08T04:21:01;1.10;99.90
41344;DHT22;27089;50.022;7.604;2024-03-08T04:23:30;1.10;99.90
41344;DHT22;27089;50.022;7.604;2024-03-08T04:25:57;1.10;99.90
41344;DHT22;27089;50.022;7.604;2024-03-08T04:28:24;1.20;99.90
41344;DHT22;27089;50.022;7.604;2024-03-08T04:30:52;1.10;99.90
41344;DHT22;27089;50.022;7.604;2024-03-08T04:33:18;1.00;99.90
41344;DHT22;27089;50.022;7.604;2024-03-08T04:35:47;1.00;99.90
41344;DHT22;27089;50.022;7.604;2024-03-08T04:38:14;1.00;99.90
41344;DHT22;27089;50.022;7.604;2024-03-08T04:40:43;1.00;99.90
41344;DHT22;27089;50.022;7.604;2024-03-08T04:43:11;1.00;99.90
41344;DHT22;27089;50.022;7.604;2024-03-08T04:45:38;1.00;99.90
41344;DHT22;27089;50.022;7.604;2024-03-08T04:48:06;1.00;99.90
41344;DHT22;27089;50.022;7.604;2024-03-08T04:50:33;0.90;99.90
41344;DHT22;27089;50.022;7.604;2024-03-08T04:53:00;1.00;99.90
41344;DHT22;27089;50.022;7.604;2024-03-08T04:55:29;0.90;99.90
41344;DHT22;27089;50.022;7.604;2024-03-08T04:57:57;0.90;99.90
41344;DHT22;27089;50.022;7.604;2024-03-08T05:00:32;0.90;99.90
41344;DHT22;27089;50.022;7.604;2024-03-08T05:02:59;0.90;99.90
41344;DHT22;27089;50.022;7.604;2024-03-08T05:05:26;0.80;99.90
41344;DHT22;27089;50.022;7.604;2024-03-08T05:07:54;0.80;99.90
41344;DHT22;27089;50.022;7.604;2024-03-08T05:10:21;0.80;99.90
41344;DHT22;27089;50.022;7.604;2024-03-08T05:12:48;0.80;99.90
41344;DHT22;27089;50.022;7.604;2024-03-08T05:15:16;0.80;99.90
41344;DHT22;27089;50.022;7.604;2024-03-08T05:17:44;0.80;99.90
41344;DHT22;27089;50.022;7.604;2024-03-08T05:20:12;0.80;99.90
41344;DHT22;27089;50.022;7.604;2024-03-08T05:22:39;0.80;99.90
41344;DHT22;27089;50.022;7.604;2024-03-08T05:25:07;0.70;99.90
41344;DHT22;27089;50.022;7.604;2024-03-08T05:27:35;0.80;99.90
41344;DHT22;27089;50.022;7.604;2024-03-08T05:30:02;0.80;99.90
41344;DHT22;27089;50.022;7.604;2024-03-08T05:32:30;0.70;99.90
41344;DHT22;27089;50.022;7.604;2024-03-08T05:34:58;0.70;99.90
41344;DHT22;27089;50.022;7.604;2024-03-08T05:37:25;0.70;99.90
41344;DHT22;27089;50.022;7.604;2024-03-08T05:39:52;0.70;99.90
41344;DHT22;27089;50.022;7.604;2024-03-08T05:42:20;0.70;99.90
41344;DHT22;27089;50.022;7.604;2024-03-08T05:44:47;0.70;99.90
41344;DHT22;27089;50.022;7.604;2024-03-08T05:47:15;0.70;99.90
41344;DHT22;27089;50.022;7.604;2024-03-08T05:49:44;0.60;99.90
41344;DHT22;27089;50.022;7.604;2024-03-08T05:52:12;0.70;99.90
41344;DHT22;27089;50.022;7.604;2024-03-08T05:54:40;0.60;99.90
41344;DHT22;27089;50.022;7.604;2024-03-08T05:57:07;0.60;99.90
41344;DHT22;27089;50.022;7.604;2024-03-08T05:59:34;0.60;99.90
41344;DHT22;27089;50.022;7.604;2024-03-08T06:02:01;0.60;99.90
41344;DHT22;27089;50.022;7.604;2024-03-08T06:04:29;0.60;99.90
41344;DHT22;27089;50.022;7.604;2024-03-08T06:06:56;0.60;99.90
41344;DHT22;27089;50.022;7.604;2024-03-08T06:09:25;0.60;99.90
41344;DHT22;27089;50.022;7.604;2024-03-08T06:11:52;0.70;99.90
41344;DHT22;27089;50.022;7.604;2024-03-08T06:14:19;0.70;99.90
41344;DHT22;27089;50.022;7.604;2024-03-08T06:16:46;0.70;99.90
41344;DHT22;27089;50.022;7.604;2024-03-08T06:19:15;0.80;99.90
41344;DHT22;27089;50.022;7.604;2024-03-08T06:21:42;0.80;99.90
41344;DHT22;27089;50.022;7.604;2024-03-08T06:24:09;1.10;99.90
41344;DHT22;27089;50.022;7.604;2024-03-08T06:26:38;1.60;99.90
41344;DHT22;27089;50.022;7.604;2024-03-08T06:29:05;2.10;99.90
41344;DHT22;27089;50.022;7.604;2024-03-08T06:31:32;2.60;99.90
41344;DHT22;27089;50.022;7.604;2024-03-08T06:33:59;3.00;99.90
41344;DHT22;27089;50.022;7.604;2024-03-08T06:36:27;2.70;99.90
41344;DHT22;27089;50.022;7.604;2024-03-08T06:38:54;2.90;99.90
41344;DHT22;27089;50.022;7.604;2024-03-08T06:41:22;3.40;99.90
41344;DHT22;27089;50.022;7.604;2024-03-08T06:43:50;3.30;99.90
41344;DHT22;27089;50.022;7.604;2024-03-08T06:46:22;2.50;99.90
41344;DHT22;27089;50.022;7.604;2024-03-08T06:48:49;2.20;99.90
41344;DHT22;27089;50.022;7.604;2024-03-08T06:51:16;2.10;99.90
41344;DHT22;27089;50.022;7.604;2024-03-08T06:53:43;2.00;99.90
41344;DHT22;27089;50.022;7.604;2024-03-08T06:56:11;1.90;99.90
41344;DHT22;27089;50.022;7.604;2024-03-08T06:58:38;1.90;99.90
41344;DHT22;27089;50.022;7.604;2024-03-08T07:01:07;1.90;99.90
41344;DHT22;27089;50.022;7.604;2024-03-08T07:03:39;2.10;99.90
41344;DHT22;27089;50.022;7.604;2024-03-08T07:06:10;2.10;99.90
41344;DHT22;27089;50.022;7.604;2024-03-08T07:08:37;2.10;99.90
41344;DHT22;27089;50.022;7.604;2024-03-08T07:11:04;2.20;99.90
41344;DHT22;27089;50.022;7.604;2024-03-08T07:13:31;2.30;99.90
41344;DHT22;27089;50.022;7.604;2024-03-08T07:15:59;2.20;99.90
41344;DHT22;27089;50.022;7.604;2024-03-08T07:18:28;2.40;99.90
41344;DHT22;27089;50.022;7.604;2024-03-08T07:20:55;2.50;99.90
41344;DHT22;27089;50.022;7.604;2024-03-08T07:23:22;2.50;99.90
41344;DHT22;27089;50.022;7.604;2024-03-08T07:26:03;2.60;99.90
41344;DHT22;27089;50.022;7.604;2024-03-08T07:28:30;2.70;99.90
41344;DHT22;27089;50.022;7.604;2024-03-08T07:30:58;2.70;99.90
41344;DHT22;27089;50.022;7.604;2024-03-08T07:33:39;2.80;99.90
41344;DHT22;27089;50.022;7.604;2024-03-08T07:36:06;3.00;99.90
41344;DHT22;27089;50.022;7.604;2024-03-08T07:38:34;3.10;99.90
41344;DHT22;27089;50.022;7.604;2024-03-08T07:41:01;3.30;99.90
41344;DHT22;27089;50.022;7.604;2024-03-08T07:43:28;3.50;99.90
41344;DHT22;27089;50.022;7.604;2024-03-08T07:45:54;4.00;99.90
41344;DHT22;27089;50.022;7.604;2024-03-08T07:48:21;4.00;99.90
41344;DHT22;27089;50.022;7.604;2024-03-08T07:50:50;5.00;99.90
41344;DHT22;27089;50.022;7.604;2024-03-08T07:53:17;5.60;99.90
41344;DHT22;27089;50.022;7.604;2024-03-08T07:55:44;5.70;99.90
41344;DHT22;27089;50.022;7.604;2024-03-08T07:58:11;6.20;99.90
41344;DHT22;27089;50.022;7.604;2024-03-08T08:00:39;6.70;99.90
41344;DHT22;27089;50.022;7.604;2024-03-08T08:03:08;6.10;99.90
41344;DHT22;27089;50.022;7.604;2024-03-08T08:05:35;7.80;99.90
41344;DHT22;27089;50.022;7.604;2024-03-08T08:08:07;7.30;99.90
41344;DHT22;27089;50.022;7.604;2024-03-08T08:10:36;7.50;99.90
41344;DHT22;27089;50.022;7.604;2024-03-08T08:13:03;6.90;99.90
41344;DHT22;27089;50.022;7.604;2024-03-08T08:15:30;6.60;99.90
41344;DHT22;27089;50.022;7.604;2024-03-08T08:17:58;5.80;99.90
41344;DHT22;27089;50.022;7.604;2024-03-08T08:20:25;6.30;99.90
41344;DHT22;27089;50.022;7.604;2024-03-08T08:22:54;5.70;99.90
41344;DHT22;27089;50.022;7.604;2024-03-08T08:25:22;7.20;99.90
41344;DHT22;27089;50.022;7.604;2024-03-08T08:27:50;7.80;99.90
41344;DHT22;27089;50.022;7.604;2024-03-08T08:30:18;6.80;99.90
41344;DHT22;27089;50.022;7.604;2024-03-08T08:32:45;5.80;99.90
41344;DHT22;27089;50.022;7.604;2024-03-08T08:35:12;5.30;99.90
41344;DHT22;27089;50.022;7.604;2024-03-08T08:37:39;5.30;99.90
41344;DHT22;27089;50.022;7.604;2024-03-08T08:40:07;5.00;99.90
41344;DHT22;27089;50.022;7.604;2024-03-08T08:42:37;4.80;99.90
41344;DHT22;27089;50.022;7.604;2024-03-08T08:45:05;4.70;99.90
41344;DHT22;27089;50.022;7.604;2024-03-08T08:47:34;4.70;99.90
41344;DHT22;27089;50.022;7.604;2024-03-08T08:50:01;5.00;99.90
41344;DHT22;27089;50.022;7.604;2024-03-08T08:52:30;5.10;99.90
41344;DHT22;27089;50.022;7.604;2024-03-08T08:54:57;5.10;99.90
41344;DHT22;27089;50.022;7.604;2024-03-08T08:57:24;5.20;99.90
41344;DHT22;27089;50.022;7.604;2024-03-08T08:59:54;5.20;99.90
41344;DHT22;27089;50.022;7.604;2024-03-08T09:02:22;5.20;99.90
41344;DHT22;27089;50.022;7.604;2024-03-08T09:04:51;6.00;99.90
41344;DHT22;27089;50.022;7.604;2024-03-08T09:07:18;5.80;99.90
41344;DHT22;27089;50.022;7.604;2024-03-08T09:09:45;7.00;99.90
41344;DHT22;27089;50.022;7.604;2024-03-08T09:12:12;7.00;99.90
41344;DHT22;27089;50.022;7.604;2024-03-08T09:14:39;7.60;99.90
41344;DHT22;27089;50.022;7.604;2024-03-08T09:17:08;9.60;99.90
41344;DHT22;27089;50.022;7.604;2024-03-08T09:19:35;11.30;99.90
41344;DHT22;27089;50.022;7.604;2024-03-08T09:22:02;10.80;99.90
41344;DHT22;27089;50.022;7.604;2024-03-08T09:24:30;9.30;99.90
41344;DHT22;27089;50.022;7.604;2024-03-08T09:26:57;9.80;99.90
41344;DHT22;27089;50.022;7.604;2024-03-08T09:29:25;9.50;99.90
41344;DHT22;27089;50.022;7.604;2024-03-08T09:31:52;9.60;99.90
41344;DHT22;27089;50.022;7.604;2024-03-08T09:34:20;8.40;99.90
41344;DHT22;27089;50.022;7.604;2024-03-08T09:36:47;8.50;99.90
41344;DHT22;27089;50.022;7.604;2024-03-08T09:39:15;8.80;99.90
41344;DHT22;27089;50.022;7.604;2024-03-08T09:41:46;8.20;99.90
41344;DHT22;27089;50.022;7.604;2024-03-08T09:44:14;8.60;99.90
41344;DHT22;27089;50.022;7.604;2024-03-08T09:46:42;9.00;99.90
41344;DHT22;27089;50.022;7.604;2024-03-08T09:49:09;7.80;99.90
41344;DHT22;27089;50.022;7.604;2024-03-08T09:51:38;7.60;99.90
41344;DHT22;27089;50.022;7.604;2024-03-08T09:54:07;7.50;99.90
41344;DHT22;27089;50.022;7.604;2024-03-08T09:56:35;7.50;99.90
41344;DHT22;27089;50.022;7.604;2024-03-08T09:59:02;7.40;99.90
41344;DHT22;27089;50.022;7.604;2024-03-08T10:02:08;7.70;99.90
41344;DHT22;27089;50.022;7.604;2024-03-08T10:04:40;7.50;99.90
41344;DHT22;27089;50.022;7.604;2024-03-08T10:07:09;7.40;99.90
41344;DHT22;27089;50.022;7.604;2024-03-08T10:09:36;7.60;99.90
41344;DHT22;27089;50.022;7.604;2024-03-08T10:12:04;7.90;99.90
41344;DHT22;27089;50.022;7.604;2024-03-08T10:14:32;8.00;99.90
41344;DHT22;27089;50.022;7.604;2024-03-08T10:16:59;8.00;99.90
41344;DHT22;27089;50.022;7.604;2024-03-08T10:19:26;7.70;99.90
41344;DHT22;27089;50.022;7.604;2024-03-08T10:21:55;7.20;99.90
41344;DHT22;27089;50.022;7.604;2024-03-08T10:24:25;7.60;99.90
41344;DHT22;27089;50.022;7.604;2024-03-08T10:26:53;7.90;99.90
41344;DHT22;27089;50.022;7.604;2024-03-08T10:29:20;8.30;99.90
41344;DHT22;27089;50.022;7.604;2024-03-08T10:31:47;8.60;99.90
41344;DHT22;27089;50.022;7.604;2024-03-08T10:34:17;8.50;99.90
41344;DHT22;27089;50.022;7.604;2024-03-08T10:36:45;8.70;99.90
41344;DHT22;27089;50.022;7.604;2024-03-08T10:39:21;8.50;99.90
41344;DHT22;27089;50.022;7.604;2024-03-08T10:41:53;8.70;99.90
41344;DHT22;27089;50.022;7.604;2024-03-08T10:44:36;8.10;99.90
41344;DHT22;27089;50.022;7.604;2024-03-08T10:47:15;7.70;99.90
41344;DHT22;27089;50.022;7.604;2024-03-08T10:49:54;7.40;99.90
41344;DHT22;27089;50.022;7.604;2024-03-08T10:52:22;7.10;99.90
41344;DHT22;27089;50.022;7.604;2024-03-08T10:54:49;7.10;99.90
41344;DHT22;27089;50.022;7.604;2024-03-08T10:57:19;7.10;99.90
41344;DHT22;27089;50.022;7.604;2024-03-08T10:59:48;6.90;99.90
41344;DHT22;27089;50.022;7.604;2024-03-08T11:02:16;6.80;99.90
41344;DHT22;27089;50.022;7.604;2024-03-08T11:04:48;6.90;99.90
41344;DHT22;27089;50.022;7.604;2024-03-08T11:07:16;6.80;99.90
41344;DHT22;27089;50.022;7.604;2024-03-08T11:09:47;6.90;99.90
41344;DHT22;27089;50.022;7.604;2024-03-08T11:12:25;7.00;99.90
41344;DHT22;27089;50.022;7.604;2024-03-08T11:14:55;7.10;99.90
41344;DHT22;27089;50.022;7.604;2024-03-08T11:17:45;7.10;99.90
41344;DHT22;27089;50.022;7.604;2024-03-08T11:20:13;7.10;99.90
41344;DHT22;27089;50.022;7.604;2024-03-08T11:22:49;7.00;99.90
41344;DHT22;27089;50.022;7.604;2024-03-08T11:25:34;6.90;99.90
41344;DHT22;27089;50.022;7.604;2024-03-08T11:28:13;7.20;99.90
41344;DHT22;27089;50.022;7.604;2024-03-08T11:30:44;7.40;99.90
41344;DHT22;27089;50.022;7.604;2024-03-08T11:33:13;7.40;99.90
41344;DHT22;27089;50.022;7.604;2024-03-08T11:35:40;7.40;99.90
41344;DHT22;27089;50.022;7.604;2024-03-08T11:38:11;7.60;99.90
41344;DHT22;27089;50.022;7.604;2024-03-08T11:40:40;7.30;99.90
41344;DHT22;27089;50.022;7.604;2024-03-08T11:43:08;7.20;99.90
41344;DHT22;27089;50.022;7.604;2024-03-08T11:45:36;7.30;99.90
41344;DHT22;27089;50.022;7.604;2024-03-08T11:48:04;7.30;99.90
41344;DHT22;27089;50.022;7.604;2024-03-08T11:50:31;7.50;99.90
41344;DHT22;27089;50.022;7.604;2024-03-08T11:53:03;7.60;99.90
41344;DHT22;27089;50.022;7.604;2024-03-08T11:55:31;7.60;99.90
41344;DHT22;27089;50.022;7.604;2024-03-08T11:58:04;7.60;99.90
41344;DHT22;27089;50.022;7.604;2024-03-08T12:00:34;7.80;99.90
41344;DHT22;27089;50.022;7.604;2024-03-08T12:03:06;8.00;99.90
41344;DHT22;27089;50.022;7.604;2024-03-08T12:05:35;7.90;99.90
41344;DHT22;27089;50.022;7.604;2024-03-08T12:08:04;7.80;99.90
41344;DHT22;27089;50.022;7.604;2024-03-08T12:10:33;7.80;99.90
41344;DHT22;27089;50.022;7.604;2024-03-08T12:13:00;7.70;99.90
41344;DHT22;27089;50.022;7.604;2024-03-08T12:15:29;7.80;99.90
41344;DHT22;27089;50.022;7.604;2024-03-08T12:17:59;7.90;99.90
41344;DHT22;27089;50.022;7.604;2024-03-08T12:20:28;8.00;99.90
41344;DHT22;27089;50.022;7.604;2024-03-08T12:22:56;7.80;99.90
41344;DHT22;27089;50.022;7.604;2024-03-08T12:25:27;7.80;99.90
41344;DHT22;27089;50.022;7.604;2024-03-08T12:27:55;7.80;99.90
41344;DHT22;27089;50.022;7.604;2024-03-08T12:30:24;7.70;99.90
41344;DHT22;27089;50.022;7.604;2024-03-08T12:32:54;7.70;99.90
41344;DHT22;27089;50.022;7.604;2024-03-08T12:35:23;7.50;99.90
41344;DHT22;27089;50.022;7.604;2024-03-08T12:37:53;7.60;99.90
41344;DHT22;27089;50.022;7.604;2024-03-08T12:40:26;7.70;99.90
41344;DHT22;27089;50.022;7.604;2024-03-08T12:42:54;7.80;99.90
41344;DHT22;27089;50.022;7.604;2024-03-08T12:45:21;7.80;99.90
41344;DHT22;27089;50.022;7.604;2024-03-08T12:47:50;7.50;99.90
41344;DHT22;27089;50.022;7.604;2024-03-08T12:50:17;7.60;99.90
41344;DHT22;27089;50.022;7.604;2024-03-08T12:52:45;7.60;99.90
41344;DHT22;27089;50.022;7.604;2024-03-08T12:55:13;7.50;99.90
41344;DHT22;27089;50.022;7.604;2024-03-08T12:57:42;7.60;99.90
41344;DHT22;27089;50.022;7.604;2024-03-08T13:00:10;7.60;99.90
41344;DHT22;27089;50.022;7.604;2024-03-08T13:02:39;7.70;99.90
41344;DHT22;27089;50.022;7.604;2024-03-08T13:05:08;7.60;99.90
41344;DHT22;27089;50.022;7.604;2024-03-08T13:07:36;7.60;99.90
41344;DHT22;27089;50.022;7.604;2024-03-08T13:10:05;7.60;99.90
41344;DHT22;27089;50.022;7.604;2024-03-08T13:12:34;7.80;99.90
41344;DHT22;27089;50.022;7.604;2024-03-08T13:15:04;7.80;99.90
41344;DHT22;27089;50.022;7.604;2024-03-08T13:17:32;7.90;99.90
41344;DHT22;27089;50.022;7.604;2024-03-08T13:19:59;7.80;99.90
41344;DHT22;27089;50.022;7.604;2024-03-08T13:22:26;7.80;99.90
41344;DHT22;27089;50.022;7.604;2024-03-08T13:24:53;7.80;99.90
41344;DHT22;27089;50.022;7.604;2024-03-08T13:27:20;7.80;99.90
41344;DHT22;27089;50.022;7.604;2024-03-08T13:29:52;7.80;99.90
41344;DHT22;27089;50.022;7.604;2024-03-08T13:32:19;7.90;99.90
41344;DHT22;27089;50.022;7.604;2024-03-08T13:34:47;7.90;99.90
41344;DHT22;27089;50.022;7.604;2024-03-08T13:37:16;7.90;99.90
41344;DHT22;27089;50.022;7.604;2024-03-08T13:39:43;7.90;99.90
41344;DHT22;27089;50.022;7.604;2024-03-08T13:42:11;7.90;99.90
41344;DHT22;27089;50.022;7.604;2024-03-08T13:44:43;7.90;99.90
41344;DHT22;27089;50.022;7.604;2024-03-08T13:47:13;8.00;99.90
41344;DHT22;27089;50.022;7.604;2024-03-08T13:49:40;8.10;99.90
41344;DHT22;27089;50.022;7.604;2024-03-08T13:52:09;8.20;99.90
41344;DHT22;27089;50.022;7.604;2024-03-08T13:54:36;8.30;99.90
41344;DHT22;27089;50.022;7.604;2024-03-08T13:57:04;8.30;99.90
41344;DHT22;27089;50.022;7.604;2024-03-08T13:59:32;8.30;99.90
41344;DHT22;27089;50.022;7.604;2024-03-08T14:02:01;8.20;99.90
41344;DHT22;27089;50.022;7.604;2024-03-08T14:04:29;8.10;99.90
41344;DHT22;27089;50.022;7.604;2024-03-08T14:06:56;8.10;99.90
41344;DHT22;27089;50.022;7.604;2024-03-08T14:09:29;8.10;99.90
41344;DHT22;27089;50.022;7.604;2024-03-08T14:11:56;8.10;99.90
41344;DHT22;27089;50.022;7.604;2024-03-08T14:14:24;8.10;99.90
41344;DHT22;27089;50.022;7.604;2024-03-08T14:16:51;8.10;99.90
41344;DHT22;27089;50.022;7.604;2024-03-08T14:19:21;8.20;99.90
41344;DHT22;27089;50.022;7.604;2024-03-08T14:21:49;8.10;99.90
41344;DHT22;27089;50.022;7.604;2024-03-08T14:24:19;8.20;99.90
41344;DHT22;27089;50.022;7.604;2024-03-08T14:26:46;8.10;99.90
41344;DHT22;27089;50.022;7.604;2024-03-08T14:29:14;8.00;99.90
41344;DHT22;27089;50.022;7.604;2024-03-08T14:31:41;8.00;99.90
41344;DHT22;27089;50.022;7.604;2024-03-08T14:34:08;8.10;99.90
41344;DHT22;27089;50.022;7.604;2024-03-08T14:36:35;8.20;99.90
41344;DHT22;27089;50.022;7.604;2024-03-08T14:39:05;8.20;99.90
41344;DHT22;27089;50.022;7.604;2024-03-08T14:41:33;8.10;99.90
41344;DHT22;27089;50.022;7.604;2024-03-08T14:44:00;8.00;99.90
41344;DHT22;27089;50.022;7.604;2024-03-08T14:46:27;8.10;99.90
41344;DHT22;27089;50.022;7.604;2024-03-08T14:48:54;8.10;99.90
41344;DHT22;27089;50.022;7.604;2024-03-08T14:51:22;8.20;99.90
41344;DHT22;27089;50.022;7.604;2024-03-08T14:53:51;8.20;99.90
41344;DHT22;27089;50.022;7.604;2024-03-08T14:56:21;8.10;99.90
41344;DHT22;27089;50.022;7.604;2024-03-08T14:58:48;8.20;99.90
41344;DHT22;27089;50.022;7.604;2024-03-08T15:01:17;8.10;99.90
41344;DHT22;27089;50.022;7.604;2024-03-08T15:03:47;8.10;99.90
41344;DHT22;27089;50.022;7.604;2024-03-08T15:06:15;8.00;99.90
41344;DHT22;27089;50.022;7.604;2024-03-08T15:08:45;8.00;99.90
41344;DHT22;27089;50.022;7.604;2024-03-08T15:11:12;8.10;99.90
41344;DHT22;27089;50.022;7.604;2024-03-08T15:13:48;8.20;99.90
41344;DHT22;27089;50.022;7.604;2024-03-08T15:16:18;8.10;99.90
41344;DHT22;27089;50.022;7.604;2024-03-08T15:18:49;8.10;99.90
41344;DHT22;27089;50.022;7.604;2024-03-08T15:21:17;8.20;99.90
41344;DHT22;27089;50.022;7.604;2024-03-08T15:23:45;8.20;99.90
41344;DHT22;27089;50.022;7.604;2024-03-08T15:26:15;8.20;99.90
41344;DHT22;27089;50.022;7.604;2024-03-08T15:28:42;8.20;99.90
41344;DHT22;27089;50.022;7.604;2024-03-08T15:31:12;8.20;99.90
41344;DHT22;27089;50.022;7.604;2024-03-08T15:33:40;8.10;99.90
41344;DHT22;27089;50.022;7.604;2024-03-08T15:36:10;8.10;99.90
41344;DHT22;27089;50.022;7.604;2024-03-08T15:38:40;8.00;99.90
41344;DHT22;27089;50.022;7.604;2024-03-08T15:41:07;8.00;99.90
41344;DHT22;27089;50.022;7.604;2024-03-08T15:43:35;8.00;99.90
41344;DHT22;27089;50.022;7.604;2024-03-08T15:46:03;8.00;99.90
41344;DHT22;27089;50.022;7.604;2024-03-08T15:48:33;7.90;99.90
41344;DHT22;27089;50.022;7.604;2024-03-08T15:51:01;7.90;99.90
41344;DHT22;27089;50.022;7.604;2024-03-08T15:53:32;7.90;99.90